Time;durP1;ratioP1;P1;durP2;ratioP2;P2;SDS_P1;SDS_P2;PMS_P1;PMS_P2;Temp;Humidity;BMP_temperature;BMP_pressure;BME280_temperature;BME280_humidity;BME280_pressure;Samples;Min_cycle;Max_cycle;Signal;HPM_P1;HPM_P2
2023/08/10 00:01:59;;;;;;;2.87;2.67;;;17.50;99.90;;;;;;5014780;28;20963;-78
2023/08/10 00:04:32;;;;;;;3.50;3.20;;;17.50;99.90;;;;;;5013854;28;20484;-79
2023/08/10 00:06:59;;;;;;;3.23;3.03;;;17.50;99.90;;;;;;5014674;28;20519;-79
2023/08/10 00:09:29;;;;;;;2.67;2.47;;;17.50;99.90;;;;;;5013326;28;20473;-80
2023/08/10 00:11:56;;;;;;;3.17;2.87;;;17.50;99.90;;;;;;5013932;28;20476;-80
2023/08/10 00:14:23;;;;;;;2.77;2.53;;;17.40;99.90;;;;;;5014851;28;20480;-78
2023/08/10 00:16:51;;;;;;;3.83;3.03;;;17.40;99.90;;;;;;5014591;28;20472;-80
2023/08/10 00:19:18;;;;;;;2.90;2.57;;;17.50;99.90;;;;;;5013182;28;20538;-78
2023/08/10 00:21:47;;;;;;;4.60;3.00;;;17.50;99.90;;;;;;5012803;28;20744;-80
2023/08/10 00:24:13;;;;;;;3.27;3.07;;;17.40;99.90;;;;;;5013122;28;21030;-79
2023/08/10 00:26:40;;;;;;;3.70;2.80;;;17.40;99.90;;;;;;5013925;28;20939;-80
2023/08/10 00:29:07;;;;;;;3.70;3.40;;;17.40;99.90;;;;;;5013430;28;20535;-80
2023/08/10 00:31:34;;;;;;;4.00;3.60;;;17.40;99.90;;;;;;5013340;28;20462;-80
2023/08/10 00:34:01;;;;;;;3.77;3.47;;;17.40;99.90;;;;;;5013759;28;20487;-80
2023/08/10 00:36:28;;;;;;;4.30;3.10;;;17.40;99.90;;;;;;5012680;28;20469;-80
2023/08/10 00:38:57;;;;;;;3.50;3.03;;;17.40;99.90;;;;;;5014064;28;21050;-79
2023/08/10 00:41:40;;;;;;;;;;;;;;;;;;;;;
2023/08/10 00:44:10;;;;;;;3.57;3.27;;;17.40;99.90;;;;;;5000870;28;20972;-80
2023/08/10 00:46:42;;;;;;;3.83;3.37;;;17.40;99.90;;;;;;5011310;28;20785;-80
2023/08/10 00:49:10;;;;;;;4.00;2.80;;;17.40;99.90;;;;;;5013586;28;20475;-80
2023/08/10 00:51:41;;;;;;;4.97;2.60;;;17.40;99.90;;;;;;5013073;28;21025;-80
2023/08/10 00:54:09;;;;;;;4.73;3.30;;;17.40;99.90;;;;;;5013442;28;20473;-81
2023/08/10 00:56:36;;;;;;;3.47;2.70;;;17.40;99.90;;;;;;5013130;28;20497;-81
2023/08/10 00:59:04;;;;;;;4.77;2.90;;;17.40;99.90;;;;;;5013595;28;20473;-80
2023/08/10 01:01:31;;;;;;;2.30;2.10;;;17.40;99.90;;;;;;5013474;28;20993;-80
2023/08/10 01:03:58;;;;;;;2.80;2.50;;;17.40;99.90;;;;;;5013375;28;20781;-80
2023/08/10 01:06:33;;;;;;;3.27;2.97;;;17.40;99.90;;;;;;5013124;28;20500;-80
2023/08/10 01:09:09;;;;;;;3.30;2.70;;;17.40;99.90;;;;;;5013448;28;20537;-79
2023/08/10 01:11:41;;;;;;;3.70;2.80;;;17.40;99.90;;;;;;5012664;28;20469;-79
2023/08/10 01:14:17;;;;;;;2.43;2.20;;;17.40;99.90;;;;;;5013310;28;20484;-81
2023/08/10 01:16:45;;;;;;;3.53;2.90;;;17.40;99.90;;;;;;5011208;28;20469;-79
2023/08/10 01:19:24;;;;;;;2.37;2.13;;;17.40;99.90;;;;;;5012959;28;20472;-81
2023/08/10 01:21:58;;;;;;;3.20;2.90;;;17.40;99.90;;;;;;5012941;28;20464;-80
2023/08/10 01:24:30;;;;;;;2.87;2.57;;;17.40;99.90;;;;;;5012989;28;20480;-79
2023/08/10 01:26:58;;;;;;;3.17;2.97;;;17.40;99.90;;;;;;5012956;28;20511;-80
2023/08/10 01:29:25;;;;;;;3.10;2.43;;;17.40;99.90;;;;;;5012804;28;20468;-81
2023/08/10 01:31:53;;;;;;;2.70;2.50;;;17.50;99.90;;;;;;5013343;28;20515;-78
2023/08/10 01:34:21;;;;;;;2.80;2.30;;;17.40;99.90;;;;;;5016830;28;20489;-80
2023/08/10 01:36:48;;;;;;;3.80;2.63;;;17.40;99.90;;;;;;5015475;28;20511;-78
2023/08/10 01:39:17;;;;;;;4.50;2.90;;;17.50;99.90;;;;;;5016555;28;20469;-78
2023/08/10 01:41:44;;;;;;;2.53;2.33;;;17.40;99.90;;;;;;5016197;28;20472;-78
2023/08/10 01:44:13;;;;;;;3.53;2.53;;;17.40;99.90;;;;;;5016423;28;20496;-80
2023/08/10 01:46:45;;;;;;;3.07;2.77;;;17.40;99.90;;;;;;5015955;28;20465;-79
2023/08/10 01:49:13;;;;;;;2.90;2.33;;;17.40;99.90;;;;;;5016390;28;20465;-79
2023/08/10 01:51:43;;;;;;;3.97;2.90;;;17.40;99.90;;;;;;5015246;28;20473;-79
2023/08/10 01:54:12;;;;;;;2.43;2.23;;;17.40;99.90;;;;;;5015952;28;20480;-80
2023/08/10 01:56:39;;;;;;;3.83;2.30;;;17.40;99.90;;;;;;5015400;28;20484;-78
2023/08/10 01:59:06;;;;;;;2.83;2.63;;;17.40;99.90;;;;;;5016170;28;20465;-78
2023/08/10 02:01:34;;;;;;;3.20;2.87;;;17.40;99.90;;;;;;5016312;28;20551;-78
2023/08/10 02:04:01;;;;;;;3.20;2.70;;;17.40;99.90;;;;;;5015524;28;21026;-79
2023/08/10 02:06:30;;;;;;;3.03;2.60;;;17.40;99.90;;;;;;5015526;28;20796;-79
2023/08/10 02:08:56;;;;;;;2.97;2.70;;;17.30;99.90;;;;;;5015549;28;20527;-78
2023/08/10 02:11:23;;;;;;;3.57;3.20;;;17.40;99.90;;;;;;5016113;28;20567;-80
2023/08/10 02:13:50;;;;;;;2.93;2.63;;;17.40;99.90;;;;;;5015055;28;20479;-78
2023/08/10 02:16:17;;;;;;;2.80;2.50;;;17.40;99.90;;;;;;5015477;28;20572;-78
2023/08/10 02:18:45;;;;;;;2.63;2.13;;;17.30;99.90;;;;;;5014869;28;20549;-78
2023/08/10 02:21:12;;;;;;;2.63;2.03;;;17.30;99.90;;;;;;5015562;28;20813;-78
2023/08/10 02:23:40;;;;;;;4.27;2.47;;;17.30;99.90;;;;;;5015215;28;20465;-79
2023/08/10 02:26:07;;;;;;;2.50;2.23;;;17.30;99.90;;;;;;5015519;28;20461;-79
2023/08/10 02:28:34;;;;;;;3.20;2.60;;;17.30;99.90;;;;;;5015506;28;20989;-78
2023/08/10 02:31:04;;;;;;;3.63;2.90;;;17.30;99.90;;;;;;5015119;28;20457;-78
2023/08/10 02:33:31;;;;;;;2.47;2.27;;;17.30;99.90;;;;;;5015503;28;20561;-78
2023/08/10 02:35:59;;;;;;;2.47;2.27;;;17.30;99.90;;;;;;5014183;28;20564;-79
2023/08/10 02:38:26;;;;;;;4.03;2.50;;;17.20;99.90;;;;;;5015300;28;20469;-79
2023/08/10 02:40:53;;;;;;;3.27;2.80;;;17.20;99.90;;;;;;5014741;28;20535;-79
2023/08/10 02:43:20;;;;;;;5.90;2.87;;;17.20;99.90;;;;;;5014732;28;20653;-79
2023/08/10 02:45:47;;;;;;;3.70;2.73;;;17.20;99.90;;;;;;5014622;28;20476;-79
2023/08/10 02:48:14;;;;;;;4.40;3.07;;;17.20;99.90;;;;;;5014462;28;20468;-79
2023/08/10 02:50:41;;;;;;;2.53;2.33;;;17.10;99.90;;;;;;5014989;28;20481;-78
2023/08/10 02:53:09;;;;;;;3.03;2.53;;;17.10;99.90;;;;;;5014944;28;20456;-79
2023/08/10 02:55:36;;;;;;;2.80;2.47;;;17.10;99.90;;;;;;5014989;28;20497;-79
2023/08/10 02:58:03;;;;;;;2.70;2.50;;;17.10;99.90;;;;;;5014195;28;20477;-78
2023/08/10 03:00:31;;;;;;;3.50;2.57;;;17.00;99.90;;;;;;5014909;28;20497;-78
2023/08/10 03:02:58;;;;;;;2.60;2.40;;;17.00;99.90;;;;;;5014191;28;20983;-80
2023/08/10 03:05:31;;;;;;;3.70;2.37;;;17.00;99.90;;;;;;5014645;28;20473;-79
2023/08/10 03:07:57;;;;;;;2.27;2.07;;;17.00;99.90;;;;;;5013678;28;20473;-78
2023/08/10 03:10:26;;;;;;;3.23;2.60;;;17.00;99.90;;;;;;5014746;28;20479;-79
2023/08/10 03:12:56;;;;;;;3.03;2.73;;;16.90;99.90;;;;;;5013764;28;20795;-78
2023/08/10 03:15:23;;;;;;;4.47;3.37;;;16.90;99.90;;;;;;5015003;28;20885;-79
2023/08/10 03:17:51;;;;;;;3.97;2.53;;;16.90;99.90;;;;;;5013815;28;20548;-78
2023/08/10 03:20:18;;;;;;;3.63;2.57;;;16.90;99.90;;;;;;5014581;28;20806;-79
2023/08/10 03:22:45;;;;;;;3.93;2.43;;;16.90;99.90;;;;;;5014591;28;20552;-78
2023/08/10 03:25:13;;;;;;;2.33;2.13;;;16.90;99.90;;;;;;5014018;28;20472;-79
2023/08/10 03:27:41;;;;;;;3.57;3.20;;;16.90;99.90;;;;;;5014431;28;20483;-80
2023/08/10 03:30:09;;;;;;;5.70;2.87;;;16.90;99.90;;;;;;5014165;28;20987;-78
2023/08/10 03:32:36;;;;;;;3.53;2.63;;;16.90;99.90;;;;;;5014250;28;20527;-78
2023/08/10 03:35:02;;;;;;;3.80;2.43;;;16.90;99.90;;;;;;5013374;28;20487;-79
2023/08/10 03:37:32;;;;;;;3.10;2.43;;;16.90;99.90;;;;;;5014646;28;20536;-78
2023/08/10 03:39:59;;;;;;;3.37;2.50;;;16.90;99.90;;;;;;5013913;28;20971;-78
2023/08/10 03:42:26;;;;;;;3.00;2.23;;;16.90;99.90;;;;;;5014598;28;20853;-79
2023/08/10 03:44:55;;;;;;;6.40;3.10;;;16.90;99.90;;;;;;5014124;28;20802;-79
2023/08/10 03:47:22;;;;;;;3.27;2.97;;;16.80;99.90;;;;;;5014166;28;20469;-79
2023/08/10 03:49:49;;;;;;;5.23;3.10;;;16.80;99.90;;;;;;5014096;28;20480;-80
2023/08/10 03:52:15;;;;;;;7.93;3.77;;;16.80;99.90;;;;;;5014310;28;20532;-80
2023/08/10 03:54:42;;;;;;;5.40;2.97;;;16.80;99.90;;;;;;5013628;28;20848;-79
2023/08/10 03:57:09;;;;;;;3.90;3.00;;;16.70;99.90;;;;;;5013667;28;20246;-78
2023/08/10 03:59:36;;;;;;;4.10;3.57;;;16.70;99.90;;;;;;5014299;28;20480;-78
2023/08/10 04:02:04;;;;;;;3.10;2.87;;;16.70;99.90;;;;;;5012967;28;20469;-80
2023/08/10 04:04:31;;;;;;;4.30;2.77;;;16.70;99.90;;;;;;5014331;28;20524;-79
2023/08/10 04:06:58;;;;;;;3.40;2.90;;;16.70;99.90;;;;;;5013246;28;20979;-78
2023/08/10 04:09:25;;;;;;;4.00;2.47;;;16.70;99.90;;;;;;5012796;28;20476;-78
2023/08/10 04:11:52;;;;;;;5.37;3.00;;;16.70;99.90;;;;;;5014098;28;20906;-79
2023/08/10 04:14:18;;;;;;;4.90;2.50;;;16.70;99.90;;;;;;5013033;28;20776;-78
2023/08/10 04:16:46;;;;;;;4.50;2.73;;;16.70;99.90;;;;;;5012903;28;20997;-79
2023/08/10 04:19:14;;;;;;;2.47;2.27;;;16.70;99.90;;;;;;5013549;28;20469;-78
2023/08/10 04:21:41;;;;;;;2.93;2.50;;;16.70;99.90;;;;;;5013730;28;20497;-79
2023/08/10 04:24:08;;;;;;;4.33;2.73;;;16.70;99.90;;;;;;5013059;28;20556;-79
2023/08/10 04:26:35;;;;;;;4.07;2.60;;;16.70;99.90;;;;;;5013216;28;20504;-78
2023/08/10 04:29:03;;;;;;;3.53;2.37;;;16.70;99.90;;;;;;5013264;28;20556;-78
2023/08/10 04:31:29;;;;;;;3.77;2.53;;;16.80;99.90;;;;;;5012538;28;20493;-78
2023/08/10 04:33:57;;;;;;;4.03;2.73;;;16.80;99.90;;;;;;5013455;28;20477;-79
2023/08/10 04:36:25;;;;;;;3.50;2.60;;;16.80;99.90;;;;;;5013391;28;20469;-79
2023/08/10 04:38:52;;;;;;;3.50;1.87;;;16.70;99.90;;;;;;5013883;28;20859;-80
2023/08/10 04:41:19;;;;;;;4.57;2.67;;;16.80;99.90;;;;;;5013453;28;20540;-77
2023/08/10 04:43:46;;;;;;;3.70;2.83;;;16.80;99.90;;;;;;5013705;28;20472;-80
2023/08/10 04:46:13;;;;;;;3.73;2.53;;;16.80;99.90;;;;;;5013813;28;20461;-80
2023/08/10 04:48:40;;;;;;;4.03;2.27;;;16.80;99.90;;;;;;5014517;28;20473;-79
2023/08/10 04:51:07;;;;;;;2.20;2.00;;;16.80;99.90;;;;;;5013062;28;20476;-79
2023/08/10 04:53:35;;;;;;;3.00;2.33;;;16.80;99.90;;;;;;5014243;28;20488;-79
2023/08/10 04:56:07;;;;;;;2.60;2.40;;;16.90;99.90;;;;;;5013318;28;20519;-79
2023/08/10 04:58:34;;;;;;;4.27;2.40;;;16.90;99.90;;;;;;5005265;28;20481;-79
2023/08/10 05:01:02;;;;;;;2.60;2.20;;;16.90;99.90;;;;;;5013989;28;20477;-80
2023/08/10 05:03:29;;;;;;;3.87;2.27;;;17.00;99.90;;;;;;5013984;28;20461;-80
2023/08/10 05:05:56;;;;;;;7.40;2.77;;;17.00;99.90;;;;;;5004337;28;20976;-80
2023/08/10 05:08:24;;;;;;;3.50;2.40;;;17.00;99.90;;;;;;5017190;28;20472;-80
2023/08/10 05:10:52;;;;;;;2.37;2.17;;;17.00;99.90;;;;;;5018894;28;20539;-80
2023/08/10 05:13:19;;;;;;;2.50;2.30;;;17.00;99.90;;;;;;5025320;28;20489;-77
2023/08/10 05:15:46;;;;;;;2.87;2.20;;;17.00;99.90;;;;;;5019142;28;20859;-79
2023/08/10 05:18:14;;;;;;;2.93;2.63;;;17.10;99.90;;;;;;5018538;28;20890;-80
2023/08/10 05:20:41;;;;;;;2.63;2.20;;;17.00;99.90;;;;;;5018565;28;20969;-80
2023/08/10 05:23:11;;;;;;;4.63;2.27;;;17.10;99.90;;;;;;5017511;28;20473;-80
2023/08/10 05:25:38;;;;;;;3.60;2.40;;;17.20;99.90;;;;;;5015391;28;20527;-78
2023/08/10 05:28:06;;;;;;;4.07;2.30;;;17.10;99.90;;;;;;5017825;28;20504;-81
2023/08/10 05:30:33;;;;;;;2.57;2.03;;;17.20;99.90;;;;;;5019650;28;20503;-80
2023/08/10 05:33:03;;;;;;;2.33;2.03;;;17.30;99.90;;;;;;5018409;28;20469;-80
2023/08/10 05:35:31;;;;;;;4.57;2.80;;;17.30;99.90;;;;;;5014993;28;20559;-81
2023/08/10 05:37:57;;;;;;;6.23;3.30;;;17.30;99.90;;;;;;5017207;28;20523;-79
2023/08/10 05:40:25;;;;;;;7.53;3.30;;;17.30;99.90;;;;;;5015626;28;20507;-80
2023/08/10 05:42:51;;;;;;;7.00;2.33;;;17.40;99.90;;;;;;5017208;28;20504;-80
2023/08/10 05:45:20;;;;;;;4.90;2.50;;;17.40;99.90;;;;;;5017202;28;20505;-80
2023/08/10 05:47:48;;;;;;;2.40;2.20;;;17.40;99.90;;;;;;5016121;28;20576;-80
2023/08/10 05:50:15;;;;;;;4.83;2.90;;;17.40;99.90;;;;;;5018560;28;20560;-81
2023/08/10 05:52:43;;;;;;;3.13;2.03;;;17.50;99.90;;;;;;5016743;28;20464;-80
2023/08/10 05:55:14;;;;;;;4.17;2.67;;;17.50;99.90;;;;;;5015681;28;20473;-79
2023/08/10 05:57:42;;;;;;;6.70;2.33;;;17.50;99.90;;;;;;5015614;28;20454;-79
2023/08/10 06:00:12;;;;;;;3.97;2.67;;;17.60;99.90;;;;;;5016489;28;20530;-80
2023/08/10 06:02:41;;;;;;;6.23;2.67;;;17.60;99.90;;;;;;5015442;28;20464;-78
2023/08/10 06:05:08;;;;;;;3.73;2.07;;;17.60;99.90;;;;;;5015575;28;20966;-80
2023/08/10 06:07:36;;;;;;;5.87;3.10;;;17.60;99.90;;;;;;5015660;28;20960;-80
2023/08/10 06:10:04;;;;;;;3.67;2.40;;;17.60;99.90;;;;;;5015379;28;20807;-79
2023/08/10 06:12:31;;;;;;;4.70;2.50;;;17.70;99.90;;;;;;5015144;28;20477;-79
2023/08/10 06:14:59;;;;;;;4.80;2.20;;;17.70;99.90;;;;;;5016057;28;20565;-80
2023/08/10 06:17:26;;;;;;;5.77;3.87;;;17.80;99.90;;;;;;5014626;28;20522;-79
2023/08/10 06:19:57;;;;;;;5.63;3.00;;;17.80;99.90;;;;;;5015226;28;20483;-78
2023/08/10 06:22:24;;;;;;;8.10;3.30;;;17.90;99.90;;;;;;5015110;28;20472;-78
2023/08/10 06:24:51;;;;;;;3.47;2.57;;;17.90;99.90;;;;;;5015102;28;20469;-80
2023/08/10 06:27:18;;;;;;;5.70;3.20;;;18.00;99.90;;;;;;5015504;28;20480;-80
2023/08/10 06:29:45;;;;;;;4.60;2.90;;;18.10;99.90;;;;;;5015682;28;20990;-80
2023/08/10 06:32:12;;;;;;;4.57;2.40;;;18.10;99.90;;;;;;5015866;28;20504;-81
2023/08/10 06:34:39;;;;;;;4.43;2.87;;;18.20;99.90;;;;;;5015115;28;20469;-81
2023/08/10 06:37:07;;;;;;;5.33;2.40;;;18.20;99.90;;;;;;5016000;28;20461;-79
2023/08/10 06:39:34;;;;;;;6.63;2.67;;;18.30;99.90;;;;;;5015476;28;20479;-78
2023/08/10 06:42:02;;;;;;;6.17;2.23;;;18.40;99.90;;;;;;5015197;28;20471;-78
2023/08/10 06:44:29;;;;;;;7.47;2.23;;;18.40;99.90;;;;;;5015548;28;20484;-78
2023/08/10 06:46:57;;;;;;;4.70;1.90;;;18.50;99.90;;;;;;5015833;28;20492;-78
2023/08/10 06:49:24;;;;;;;5.00;2.03;;;18.50;99.90;;;;;;5015787;28;20971;-79
2023/08/10 06:51:51;;;;;;;4.67;2.17;;;18.60;99.90;;;;;;5015395;28;20464;-77
2023/08/10 06:54:20;;;;;;;6.40;2.60;;;18.70;99.90;;;;;;5015446;28;20480;-78
2023/08/10 06:56:47;;;;;;;3.23;2.20;;;18.70;99.90;;;;;;5013801;28;21111;-78
2023/08/10 06:59:14;;;;;;;2.90;1.80;;;18.80;99.90;;;;;;5015441;28;20544;-79
2023/08/10 07:01:41;;;;;;;3.90;2.00;;;18.90;99.90;;;;;;5014689;28;20531;-80
2023/08/10 07:04:09;;;;;;;5.13;2.50;;;19.00;99.90;;;;;;5014593;28;20501;-77
2023/08/10 07:06:39;;;;;;;3.57;2.13;;;19.00;99.90;;;;;;5014201;28;20473;-79
2023/08/10 07:09:09;;;;;;;9.10;2.23;;;19.00;99.90;;;;;;5014924;28;20476;-80
2023/08/10 07:11:37;;;;;;;5.03;2.40;;;19.00;99.90;;;;;;5013891;28;20556;-81
2023/08/10 07:14:04;;;;;;;11.23;2.43;;;19.10;99.90;;;;;;5014747;28;20485;-81
2023/08/10 07:16:31;;;;;;;7.37;2.30;;;19.10;99.90;;;;;;5013910;28;20487;-80
2023/08/10 07:18:58;;;;;;;5.87;2.33;;;19.20;99.90;;;;;;5014558;28;20468;-80
2023/08/10 07:21:25;;;;;;;5.33;2.20;;;19.20;99.90;;;;;;5014417;28;20465;-79
2023/08/10 07:23:52;;;;;;;4.47;2.10;;;19.30;99.90;;;;;;5013204;28;20471;-79
2023/08/10 07:26:19;;;;;;;5.37;2.27;;;19.40;99.90;;;;;;5014287;28;20477;-80
2023/08/10 07:28:47;;;;;;;6.00;2.17;;;19.50;99.90;;;;;;5013293;28;20469;-80
2023/08/10 07:31:15;;;;;;;3.53;1.80;;;19.50;99.90;;;;;;5013728;28;20535;-79
2023/08/10 07:33:49;;;;;;;4.63;2.87;;;19.50;99.90;;;;;;5013666;28;20488;-79
2023/08/10 07:36:16;;;;;;;3.23;2.37;;;19.50;99.90;;;;;;5014010;28;20559;-79
2023/08/10 07:38:43;;;;;;;5.13;2.27;;;19.60;99.90;;;;;;5013655;28;20469;-80
2023/08/10 07:41:09;;;;;;;4.77;2.00;;;19.70;99.90;;;;;;5014704;28;20572;-79
2023/08/10 07:43:37;;;;;;;5.03;2.10;;;19.80;99.90;;;;;;5013849;28;20468;-80
2023/08/10 07:46:05;;;;;;;8.27;2.83;;;19.90;99.90;;;;;;5014406;28;20788;-80
2023/08/10 07:48:32;;;;;;;5.87;1.93;;;20.00;99.90;;;;;;5014350;28;20547;-78
2023/08/10 07:51:00;;;;;;;3.23;1.60;;;20.10;99.90;;;;;;5013791;28;20535;-79
2023/08/10 07:53:28;;;;;;;4.33;2.00;;;20.20;99.90;;;;;;5013786;28;20479;-79
2023/08/10 07:55:55;;;;;;;3.70;1.67;;;20.30;99.90;;;;;;5002555;28;20489;-79
2023/08/10 07:58:22;;;;;;;4.07;1.50;;;20.30;99.90;;;;;;5014109;28;20535;-77
2023/08/10 08:00:49;;;;;;;4.20;1.47;;;20.30;99.90;;;;;;5013636;28;20464;-79
2023/08/10 08:03:17;;;;;;;5.83;1.60;;;20.30;99.90;;;;;;5013596;28;20556;-79
2023/08/10 08:05:45;;;;;;;2.10;1.77;;;20.40;99.90;;;;;;5004636;28;20469;-79
2023/08/10 08:08:12;;;;;;;2.30;1.90;;;20.40;99.90;;;;;;5014002;28;20475;-80
2023/08/10 08:10:39;;;;;;;3.00;1.93;;;20.40;99.90;;;;;;5013889;28;20462;-79
2023/08/10 08:13:06;;;;;;;4.70;2.10;;;20.40;99.90;;;;;;5013485;28;20477;-78
2023/08/10 08:15:34;;;;;;;3.60;1.53;;;20.50;99.90;;;;;;5013818;28;20473;-78
2023/08/10 08:18:38;;;;;;;3.00;1.40;;;20.60;99.90;;;;;;5013572;28;20539;-79
2023/08/10 08:21:09;;;;;;;3.97;1.70;;;20.70;99.90;;;;;;5013000;28;20461;-78
2023/08/10 08:23:36;;;;;;;4.80;2.13;;;20.80;99.90;;;;;;5013920;28;20560;-79
2023/08/10 08:26:05;;;;;;;3.53;1.70;;;20.90;99.90;;;;;;5013055;28;20561;-79
2023/08/10 08:28:33;;;;;;;4.43;1.73;;;21.00;99.90;;;;;;5012133;28;20479;-79
2023/08/10 08:31:03;;;;;;;2.60;1.67;;;21.10;99.90;;;;;;5012015;28;20497;-80
2023/08/10 08:33:31;;;;;;;3.90;2.00;;;21.20;99.90;;;;;;5013653;28;20469;-78
2023/08/10 08:35:58;;;;;;;3.63;1.70;;;21.20;99.90;;;;;;5012763;28;20531;-80
2023/08/10 08:38:30;;;;;;;4.93;2.10;;;21.20;99.90;;;;;;5013507;28;21038;-79
2023/08/10 08:40:57;;;;;;;2.83;1.93;;;21.20;99.90;;;;;;5013869;28;20484;-81
2023/08/10 08:43:27;;;;;;;3.17;1.80;;;21.20;99.90;;;;;;5016977;28;20556;-79
2023/08/10 08:45:54;;;;;;;6.57;2.50;;;21.20;99.90;;;;;;5017144;28;20552;-79
2023/08/10 08:48:21;;;;;;;3.57;2.07;;;21.20;99.90;;;;;;5017264;28;20552;-79
2023/08/10 08:50:50;;;;;;;2.30;1.60;;;21.30;99.90;;;;;;5007673;28;20485;-79
2023/08/10 08:53:18;;;;;;;4.30;1.80;;;21.30;99.90;;;;;;5008873;28;21085;-78
2023/08/10 08:55:47;;;;;;;4.37;1.93;;;21.30;99.90;;;;;;5017179;28;20552;-79
2023/08/10 08:58:15;;;;;;;2.20;1.60;;;21.30;99.90;;;;;;5016281;28;20495;-80
2023/08/10 09:00:46;;;;;;;3.13;1.70;;;21.30;99.90;;;;;;5016675;28;20479;-80
2023/08/10 09:03:23;;;;;;;6.77;2.03;;;21.30;99.90;;;;;;5006896;28;20520;-80
2023/08/10 09:05:50;;;;;;;8.43;2.23;;;21.30;99.90;;;;;;5017196;28;20979;-80
2023/08/10 09:08:18;;;;;;;2.97;1.70;;;21.30;99.90;;;;;;5005657;28;20457;-80
2023/08/10 09:10:53;;;;;;;4.93;1.97;;;21.30;99.90;;;;;;5017243;28;20461;-80
2023/08/10 09:13:26;;;;;;;3.83;1.70;;;21.40;99.90;;;;;;5016639;28;20460;-79
2023/08/10 09:16:07;;;;;;;3.47;2.00;;;21.40;99.90;;;;;;5017002;28;20508;-80
2023/08/10 09:18:35;;;;;;;2.50;1.60;;;21.40;99.90;;;;;;5017210;28;20540;-80
2023/08/10 09:21:14;;;;;;;4.47;2.10;;;21.50;99.90;;;;;;5016474;28;20461;-79
2023/08/10 09:23:42;;;;;;;3.30;1.77;;;21.50;99.90;;;;;;5016454;28;21025;-79
2023/08/10 09:26:13;;;;;;;5.67;1.70;;;21.50;99.90;;;;;;5016465;28;20481;-79
2023/08/10 09:28:40;;;;;;;2.33;1.50;;;21.50;99.90;;;;;;5016261;28;20846;-79
2023/08/10 09:31:08;;;;;;;3.10;1.70;;;21.50;99.90;;;;;;5016869;28;20539;-79
2023/08/10 09:33:36;;;;;;;3.40;1.63;;;21.50;99.90;;;;;;5008057;28;20548;-78
2023/08/10 09:36:07;;;;;;;3.67;2.10;;;21.50;99.90;;;;;;5015850;28;20862;-78
2023/08/10 09:38:35;;;;;;;1.80;1.37;;;21.60;99.90;;;;;;5016274;28;20535;-79
2023/08/10 09:41:11;;;;;;;4.10;2.00;;;21.50;99.90;;;;;;5015548;28;20464;-79
2023/08/10 09:43:38;;;;;;;2.97;1.30;;;21.50;99.90;;;;;;5016425;28;20547;-78
2023/08/10 09:46:06;;;;;;;3.03;1.87;;;21.50;99.90;;;;;;5015189;28;20480;-79
2023/08/10 09:48:37;;;;;;;1.40;1.27;;;21.50;99.40;;;;;;5016658;28;20489;-79
2023/08/10 09:51:05;;;;;;;2.13;1.50;;;21.50;99.00;;;;;;5015983;28;20477;-79
2023/08/10 09:53:33;;;;;;;5.60;1.80;;;21.50;99.10;;;;;;5015499;28;20523;-79
2023/08/10 09:56:01;;;;;;;1.90;1.70;;;21.50;99.90;;;;;;5015921;28;20542;-79
2023/08/10 09:58:30;;;;;;;2.60;1.80;;;21.50;99.50;;;;;;5016613;28;20476;-78
2023/08/10 10:01:00;;;;;;;4.73;1.87;;;21.50;99.40;;;;;;5015578;28;20477;-80
2023/08/10 10:03:29;;;;;;;2.87;1.77;;;21.50;99.10;;;;;;5016665;28;20811;-80
2023/08/10 10:06:00;;;;;;;2.40;1.80;;;21.50;99.00;;;;;;5015613;28;20487;-80
2023/08/10 10:08:27;;;;;;;2.50;1.50;;;21.50;99.10;;;;;;5016387;28;20483;-80
2023/08/10 10:10:57;;;;;;;2.60;1.70;;;21.50;99.10;;;;;;5015691;28;20473;-79
2023/08/10 10:13:25;;;;;;;3.73;1.70;;;21.60;99.30;;;;;;5016092;28;20531;-80
2023/08/10 10:15:55;;;;;;;2.00;1.20;;;21.60;99.00;;;;;;5015276;28;20472;-80
2023/08/10 10:18:22;;;;;;;4.80;1.70;;;21.70;99.80;;;;;;5016323;28;20477;-80
2023/08/10 10:20:50;;;;;;;4.63;2.03;;;21.80;99.90;;;;;;5015210;28;20503;-79
2023/08/10 10:23:18;;;;;;;4.90;1.60;;;21.80;99.60;;;;;;5015706;28;21038;-78
2023/08/10 10:25:57;;;;;;;2.53;1.93;;;21.90;99.90;;;;;;5015238;28;20469;-80
2023/08/10 10:28:26;;;;;;;3.67;2.40;;;21.90;99.90;;;;;;5015898;28;20544;-80
2023/08/10 10:31:08;;;;;;;2.23;1.63;;;21.90;99.90;;;;;;5015411;28;20469;-80
2023/08/10 10:33:35;;;;;;;4.40;3.13;;;22.00;99.90;;;;;;5015549;28;20548;-80
2023/08/10 10:36:12;;;;;;;6.53;3.67;;;22.00;99.60;;;;;;5015098;28;20550;-79
2023/08/10 10:38:40;;;;;;;2.13;1.90;;;22.00;99.00;;;;;;5015381;28;20480;-81
2023/08/10 10:41:14;;;;;;;3.40;2.50;;;22.00;99.90;;;;;;5015080;28;20480;-79
2023/08/10 10:43:41;;;;;;;2.37;2.03;;;22.00;99.10;;;;;;5015688;28;20492;-79
2023/08/10 10:46:09;;;;;;;6.70;2.50;;;22.10;99.80;;;;;;5014871;28;20540;-79
2023/08/10 10:48:37;;;;;;;4.13;2.20;;;22.10;99.90;;;;;;5015320;28;20469;-81
2023/08/10 10:51:06;;;;;;;2.27;1.90;;;22.10;99.80;;;;;;5005086;28;20524;-79
2023/08/10 10:53:35;;;;;;;2.43;2.10;;;22.10;99.30;;;;;;5014541;28;20548;-80
2023/08/10 10:56:07;;;;;;;4.10;2.10;;;22.10;99.90;;;;;;5013762;28;20504;-79
2023/08/10 10:58:34;;;;;;;3.63;2.13;;;22.10;99.20;;;;;;5015129;28;20477;-81
2023/08/10 11:01:05;;;;;;;3.73;2.23;;;22.10;98.90;;;;;;5014948;28;20872;-80
2023/08/10 11:03:33;;;;;;;3.13;1.90;;;22.10;98.80;;;;;;5014062;28;20477;-79
2023/08/10 11:06:02;;;;;;;2.23;1.63;;;22.00;98.80;;;;;;5013987;28;20481;-79
2023/08/10 11:08:32;;;;;;;3.40;1.80;;;22.00;98.90;;;;;;5015017;28;20527;-79
2023/08/10 11:10:59;;;;;;;3.17;1.80;;;22.00;98.50;;;;;;5014468;28;20563;-80
2023/08/10 11:13:32;;;;;;;3.37;1.73;;;22.00;98.60;;;;;;5014509;28;20475;-80
2023/08/10 11:15:59;;;;;;;2.73;1.90;;;21.90;98.30;;;;;;5014515;28;20469;-79
2023/08/10 11:18:27;;;;;;;3.87;2.10;;;21.90;98.50;;;;;;5014907;28;20461;-79
2023/08/10 11:20:56;;;;;;;5.90;2.17;;;22.00;99.40;;;;;;5014092;28;20492;-78
2023/08/10 11:23:25;;;;;;;5.83;2.33;;;21.90;99.20;;;;;;5014827;28;20499;-80
2023/08/10 11:25:53;;;;;;;2.50;1.73;;;21.90;99.00;;;;;;5014883;28;20539;-80
2023/08/10 11:28:22;;;;;;;3.00;2.07;;;21.90;98.90;;;;;;5014065;28;21080;-80
2023/08/10 11:30:51;;;;;;;6.27;1.70;;;21.90;98.80;;;;;;5014714;28;20470;-79
2023/08/10 11:33:18;;;;;;;4.07;1.73;;;21.90;99.40;;;;;;5014398;28;21038;-79
2023/08/10 11:35:51;;;;;;;2.07;1.60;;;21.90;99.00;;;;;;5014362;28;20505;-80
2023/08/10 11:38:20;;;;;;;3.33;1.67;;;21.90;98.80;;;;;;5014000;28;20480;-79
2023/08/10 11:40:47;;;;;;;5.33;2.10;;;21.90;98.40;;;;;;5014432;28;20553;-80
2023/08/10 11:43:19;;;;;;;2.80;1.93;;;21.90;98.30;;;;;;5014388;28;20473;-80
2023/08/10 11:45:49;;;;;;;3.10;1.70;;;21.90;98.40;;;;;;5004098;28;20492;-79
2023/08/10 11:48:19;;;;;;;10.63;3.27;;;21.90;98.50;;;;;;5013492;28;20488;-79
2023/08/10 11:50:46;;;;;;;3.70;2.10;;;21.90;98.60;;;;;;5013554;28;20467;-79
2023/08/10 11:53:21;;;;;;;4.60;2.47;;;21.90;98.40;;;;;;5013408;28;20508;-78
2023/08/10 11:55:53;;;;;;;4.67;1.83;;;21.90;98.80;;;;;;5013960;28;20493;-79
2023/08/10 11:58:21;;;;;;;3.23;1.97;;;22.00;98.70;;;;;;5013645;28;20488;-79
2023/08/10 12:00:53;;;;;;;5.33;1.93;;;22.10;99.40;;;;;;5013969;28;20488;-80
2023/08/10 12:03:25;;;;;;;3.23;2.17;;;22.10;99.60;;;;;;5013608;28;20469;-79
2023/08/10 12:05:53;;;;;;;3.60;1.87;;;22.10;97.90;;;;;;5013588;28;20468;-79
2023/08/10 12:08:25;;;;;;;3.40;1.70;;;22.20;98.90;;;;;;5013686;28;20542;-79
2023/08/10 12:11:01;;;;;;;1.50;1.40;;;22.20;98.20;;;;;;5014321;28;20613;-79
2023/08/10 12:13:28;;;;;;;3.47;2.30;;;22.20;99.90;;;;;;5013313;28;20540;-80
2023/08/10 12:15:57;;;;;;;3.23;1.80;;;22.20;98.50;;;;;;5013628;28;20465;-80
2023/08/10 12:18:25;;;;;;;3.50;1.87;;;22.20;98.90;;;;;;5013835;28;20560;-79
2023/08/10 12:20:54;;;;;;;7.77;2.20;;;22.20;99.50;;;;;;5013901;28;20504;-79
2023/08/10 12:23:24;;;;;;;2.43;1.50;;;22.20;98.10;;;;;;5013293;28;20483;-79
2023/08/10 12:25:51;;;;;;;4.57;1.90;;;22.20;99.90;;;;;;5004163;28;20493;-81
2023/08/10 12:28:27;;;;;;;3.33;2.03;;;22.20;99.90;;;;;;5012363;28;20499;-79
2023/08/10 12:30:54;;;;;;;4.40;2.73;;;22.20;99.30;;;;;;5013949;28;20461;-80
2023/08/10 12:33:21;;;;;;;3.67;2.03;;;22.20;98.20;;;;;;5012888;28;20504;-80
2023/08/10 12:35:49;;;;;;;6.30;2.27;;;22.20;98.00;;;;;;5005239;28;20485;-80
2023/08/10 12:38:17;;;;;;;3.97;1.80;;;22.20;97.70;;;;;;5012509;28;20476;-79
2023/08/10 12:40:44;;;;;;;2.53;1.73;;;22.20;98.30;;;;;;5010381;28;20484;-80
2023/08/10 12:43:11;;;;;;;3.87;2.30;;;22.20;99.90;;;;;;5008627;28;20458;-80
2023/08/10 12:45:43;;;;;;;1.80;1.70;;;22.30;99.70;;;;;;5004045;28;20519;-80
2023/08/10 12:48:09;;;;;;;1.40;1.30;;;22.30;97.80;;;;;;5009497;28;20531;-79
2023/08/10 12:50:37;;;;;;;1.70;1.43;;;22.30;97.90;;;;;;5008435;28;20870;-80
2023/08/10 12:53:05;;;;;;;2.47;1.60;;;22.30;99.90;;;;;;5011872;28;20476;-80
2023/08/10 12:55:33;;;;;;;2.67;1.67;;;22.20;99.90;;;;;;5011913;28;20566;-79